sensor_id;sensor_type;location;lat;lon;timestamp;temperature;humidity
31369;DHT22;18004;48.416;10.066;2022-10-17T00:00:35;11.80;99.90
31369;DHT22;18004;48.416;10.066;2022-10-17T00:03:01;11.80;99.90
31369;DHT22;18004;48.416;10.066;2022-10-17T00:05:26;11.80;99.90
31369;DHT22;18004;48.416;10.066;2022-10-17T00:07:52;11.80;99.90
31369;DHT22;18004;48.416;10.066;2022-10-17T00:10:19;11.80;99.90
31369;DHT22;18004;48.416;10.066;2022-10-17T00:12:44;11.70;99.90
31369;DHT22;18004;48.416;10.066;2022-10-17T00:15:13;11.70;99.90
31369;DHT22;18004;48.416;10.066;2022-10-17T00:17:39;11.60;99.90
31369;DHT22;18004;48.416;10.066;2022-10-17T00:20:05;11.60;99.90
31369;DHT22;18004;48.416;10.066;2022-10-17T00:22:30;11.60;99.90
31369;DHT22;18004;48.416;10.066;2022-10-17T00:24:56;11.60;99.90
31369;DHT22;18004;48.416;10.066;2022-10-17T00:27:22;11.50;99.90
31369;DHT22;18004;48.416;10.066;2022-10-17T00:29:50;11.60;99.90
31369;DHT22;18004;48.416;10.066;2022-10-17T00:32:17;11.50;99.90
31369;DHT22;18004;48.416;10.066;2022-10-17T00:34:43;11.40;99.90
31369;DHT22;18004;48.416;10.066;2022-10-17T00:37:09;11.40;99.90
31369;DHT22;18004;48.416;10.066;2022-10-17T00:39:34;11.50;99.90
31369;DHT22;18004;48.416;10.066;2022-10-17T00:42:00;11.40;99.90
31369;DHT22;18004;48.416;10.066;2022-10-17T00:46:58;11.40;99.90
31369;DHT22;18004;48.416;10.066;2022-10-17T00:49:26;11.30;99.90
31369;DHT22;18004;48.416;10.066;2022-10-17T00:51:53;11.30;99.90
31369;DHT22;18004;48.416;10.066;2022-10-17T00:54:20;11.30;99.90
31369;DHT22;18004;48.416;10.066;2022-10-17T00:56:47;11.20;99.90
31369;DHT22;18004;48.416;10.066;2022-10-17T00:59:13;11.20;99.90
31369;DHT22;18004;48.416;10.066;2022-10-17T01:01:40;11.20;99.90
31369;DHT22;18004;48.416;10.066;2022-10-17T01:04:07;11.20;99.90
31369;DHT22;18004;48.416;10.066;2022-10-17T01:06:32;11.10;99.90
31369;DHT22;18004;48.416;10.066;2022-10-17T01:08:58;11.10;99.90
31369;DHT22;18004;48.416;10.066;2022-10-17T01:11:27;11.10;99.90
31369;DHT22;18004;48.416;10.066;2022-10-17T01:16:51;11.00;99.90
31369;DHT22;18004;48.416;10.066;2022-10-17T01:19:33;10.90;99.90
31369;DHT22;18004;48.416;10.066;2022-10-17T01:24:45;10.90;99.90
31369;DHT22;18004;48.416;10.066;2022-10-17T01:33:07;10.80;99.90
31369;DHT22;18004;48.416;10.066;2022-10-17T01:43:12;10.70;99.90
31369;DHT22;18004;48.416;10.066;2022-10-17T01:45:40;10.70;99.90
31369;DHT22;18004;48.416;10.066;2022-10-17T01:48:17;10.60;99.90
31369;DHT22;18004;48.416;10.066;2022-10-17T01:50:56;10.60;99.90
31369;DHT22;18004;48.416;10.066;2022-10-17T01:53:25;10.60;99.90
31369;DHT22;18004;48.416;10.066;2022-10-17T01:55:51;10.60;99.90
31369;DHT22;18004;48.416;10.066;2022-10-17T02:00:44;10.50;99.90
31369;DHT22;18004;48.416;10.066;2022-10-17T02:03:15;10.50;99.90
31369;DHT22;18004;48.416;10.066;2022-10-17T02:05:42;10.50;99.90
31369;DHT22;18004;48.416;10.066;2022-10-17T02:08:08;10.50;99.90
31369;DHT22;18004;48.416;10.066;2022-10-17T02:10:50;10.50;99.90
31369;DHT22;18004;48.416;10.066;2022-10-17T02:13:29;10.50;99.90
31369;DHT22;18004;48.416;10.066;2022-10-17T02:16:04;10.40;99.90
31369;DHT22;18004;48.416;10.066;2022-10-17T02:21:18;10.40;99.90
31369;DHT22;18004;48.416;10.066;2022-10-17T02:23:55;10.30;99.90
31369;DHT22;18004;48.416;10.066;2022-10-17T02:26:26;10.40;99.90
31369;DHT22;18004;48.416;10.066;2022-10-17T02:29:08;10.30;99.90
31369;DHT22;18004;48.416;10.066;2022-10-17T02:31:38;10.30;99.90
31369;DHT22;18004;48.416;10.066;2022-10-17T02:34:28;10.30;99.90
31369;DHT22;18004;48.416;10.066;2022-10-17T02:36:52;10.30;99.90
31369;DHT22;18004;48.416;10.066;2022-10-17T02:39:20;10.20;99.90
31369;DHT22;18004;48.416;10.066;2022-10-17T02:41:47;10.20;99.90
31369;DHT22;18004;48.416;10.066;2022-10-17T02:44:13;10.20;99.90
31369;DHT22;18004;48.416;10.066;2022-10-17T02:46:40;10.20;99.90
31369;DHT22;18004;48.416;10.066;2022-10-17T02:49:15;10.10;99.90
31369;DHT22;18004;48.416;10.066;2022-10-17T02:56:58;10.10;99.90
31369;DHT22;18004;48.416;10.066;2022-10-17T02:59:25;10.00;99.90
31369;DHT22;18004;48.416;10.066;2022-10-17T03:01:53;10.00;99.90
31369;DHT22;18004;48.416;10.066;2022-10-17T03:04:19;10.00;99.90
31369;DHT22;18004;48.416;10.066;2022-10-17T03:06:45;10.00;99.90
31369;DHT22;18004;48.416;10.066;2022-10-17T03:09:11;9.90;99.90
31369;DHT22;18004;48.416;10.066;2022-10-17T03:11:37;9.90;99.90
31369;DHT22;18004;48.416;10.066;2022-10-17T03:14:03;9.90;99.90
31369;DHT22;18004;48.416;10.066;2022-10-17T03:16:28;9.90;99.90
31369;DHT22;18004;48.416;10.066;2022-10-17T03:18:54;9.90;99.90
31369;DHT22;18004;48.416;10.066;2022-10-17T03:21:20;9.90;99.90
31369;DHT22;18004;48.416;10.066;2022-10-17T03:23:45;9.90;99.90
31369;DHT22;18004;48.416;10.066;2022-10-17T03:26:11;9.80;99.90
31369;DHT22;18004;48.416;10.066;2022-10-17T03:28:36;9.80;99.90
31369;DHT22;18004;48.416;10.066;2022-10-17T03:31:09;9.80;99.90
31369;DHT22;18004;48.416;10.066;2022-10-17T03:33:35;9.70;99.90
31369;DHT22;18004;48.416;10.066;2022-10-17T03:36:12;9.70;99.90
31369;DHT22;18004;48.416;10.066;2022-10-17T03:38:38;9.70;99.90
31369;DHT22;18004;48.416;10.066;2022-10-17T03:41:04;9.70;99.90
31369;DHT22;18004;48.416;10.066;2022-10-17T03:43:30;9.70;99.90
31369;DHT22;18004;48.416;10.066;2022-10-17T03:45:56;9.70;99.90
31369;DHT22;18004;48.416;10.066;2022-10-17T03:48:25;9.70;99.90
31369;DHT22;18004;48.416;10.066;2022-10-17T03:50:52;9.70;99.90
31369;DHT22;18004;48.416;10.066;2022-10-17T03:53:22;9.60;99.90
31369;DHT22;18004;48.416;10.066;2022-10-17T03:55:48;9.60;99.90
31369;DHT22;18004;48.416;10.066;2022-10-17T03:58:13;9.60;99.90
31369;DHT22;18004;48.416;10.066;2022-10-17T04:00:39;9.60;99.90
31369;DHT22;18004;48.416;10.066;2022-10-17T04:03:04;9.50;99.90
31369;DHT22;18004;48.416;10.066;2022-10-17T04:05:30;9.50;99.90
31369;DHT22;18004;48.416;10.066;2022-10-17T04:07:56;9.50;99.90
31369;DHT22;18004;48.416;10.066;2022-10-17T04:10:21;9.50;99.90
31369;DHT22;18004;48.416;10.066;2022-10-17T04:12:47;9.50;99.90
31369;DHT22;18004;48.416;10.066;2022-10-17T04:15:13;9.50;99.90
31369;DHT22;18004;48.416;10.066;2022-10-17T04:17:39;9.50;99.90
31369;DHT22;18004;48.416;10.066;2022-10-17T04:20:04;9.50;99.90
31369;DHT22;18004;48.416;10.066;2022-10-17T04:22:30;9.50;99.90
31369;DHT22;18004;48.416;10.066;2022-10-17T04:24:56;9.60;99.90
31369;DHT22;18004;48.416;10.066;2022-10-17T04:27:22;9.60;99.90
31369;DHT22;18004;48.416;10.066;2022-10-17T04:29:47;9.60;99.90
31369;DHT22;18004;48.416;10.066;2022-10-17T04:32:13;9.60;99.90
31369;DHT22;18004;48.416;10.066;2022-10-17T04:34:39;9.50;99.90
31369;DHT22;18004;48.416;10.066;2022-10-17T04:37:05;9.50;99.90
31369;DHT22;18004;48.416;10.066;2022-10-17T04:39:30;9.50;99.90
31369;DHT22;18004;48.416;10.066;2022-10-17T04:41:56;9.50;99.90
31369;DHT22;18004;48.416;10.066;2022-10-17T04:44:22;9.50;99.90
31369;DHT22;18004;48.416;10.066;2022-10-17T04:46:48;9.50;99.90
31369;DHT22;18004;48.416;10.066;2022-10-17T04:49:13;9.40;99.90
31369;DHT22;18004;48.416;10.066;2022-10-17T04:51:39;9.50;99.90
31369;DHT22;18004;48.416;10.066;2022-10-17T04:54:05;9.40;99.90
31369;DHT22;18004;48.416;10.066;2022-10-17T04:56:30;9.50;99.90
31369;DHT22;18004;48.416;10.066;2022-10-17T04:58:57;9.40;99.90
31369;DHT22;18004;48.416;10.066;2022-10-17T05:01:22;9.40;99.90
31369;DHT22;18004;48.416;10.066;2022-10-17T05:03:48;9.40;99.90
31369;DHT22;18004;48.416;10.066;2022-10-17T05:06:15;9.40;99.90
31369;DHT22;18004;48.416;10.066;2022-10-17T05:08:44;9.40;99.90
31369;DHT22;18004;48.416;10.066;2022-10-17T05:11:17;9.40;99.90
31369;DHT22;18004;48.416;10.066;2022-10-17T05:13:43;9.40;99.90
31369;DHT22;18004;48.416;10.066;2022-10-17T05:16:09;9.40;99.90
31369;DHT22;18004;48.416;10.066;2022-10-17T05:18:35;9.30;99.90
31369;DHT22;18004;48.416;10.066;2022-10-17T05:21:02;9.30;99.90
31369;DHT22;18004;48.416;10.066;2022-10-17T05:23:28;9.30;99.90
31369;DHT22;18004;48.416;10.066;2022-10-17T05:25:54;9.30;99.90
31369;DHT22;18004;48.416;10.066;2022-10-17T05:28:20;9.30;99.90
31369;DHT22;18004;48.416;10.066;2022-10-17T05:30:46;9.30;99.90
31369;DHT22;18004;48.416;10.066;2022-10-17T05:33:11;9.30;99.90
31369;DHT22;18004;48.416;10.066;2022-10-17T05:35:43;9.30;99.90
31369;DHT22;18004;48.416;10.066;2022-10-17T05:38:09;9.20;99.90
31369;DHT22;18004;48.416;10.066;2022-10-17T05:40:34;9.20;99.90
31369;DHT22;18004;48.416;10.066;2022-10-17T05:43:00;9.30;99.90
31369;DHT22;18004;48.416;10.066;2022-10-17T05:45:26;9.20;99.90
31369;DHT22;18004;48.416;10.066;2022-10-17T05:47:51;9.20;99.90
31369;DHT22;18004;48.416;10.066;2022-10-17T05:50:17;9.20;99.90
31369;DHT22;18004;48.416;10.066;2022-10-17T05:52:45;9.10;99.90
31369;DHT22;18004;48.416;10.066;2022-10-17T05:55:11;9.20;99.90
31369;DHT22;18004;48.416;10.066;2022-10-17T05:57:40;9.10;99.90
31369;DHT22;18004;48.416;10.066;2022-10-17T06:00:06;9.10;99.90
31369;DHT22;18004;48.416;10.066;2022-10-17T06:02:32;9.00;99.90
31369;DHT22;18004;48.416;10.066;2022-10-17T06:04:58;9.10;99.90
31369;DHT22;18004;48.416;10.066;2022-10-17T06:07:23;9.10;99.90
31369;DHT22;18004;48.416;10.066;2022-10-17T06:09:49;9.10;99.90
31369;DHT22;18004;48.416;10.066;2022-10-17T06:12:15;9.10;99.90
31369;DHT22;18004;48.416;10.066;2022-10-17T06:14:41;9.00;99.90
31369;DHT22;18004;48.416;10.066;2022-10-17T06:17:06;9.00;99.90
31369;DHT22;18004;48.416;10.066;2022-10-17T06:19:32;8.90;99.90
31369;DHT22;18004;48.416;10.066;2022-10-17T06:21:58;8.90;99.90
31369;DHT22;18004;48.416;10.066;2022-10-17T06:24:23;8.90;99.90
31369;DHT22;18004;48.416;10.066;2022-10-17T06:26:49;8.90;99.90
31369;DHT22;18004;48.416;10.066;2022-10-17T06:29:15;9.00;99.90
31369;DHT22;18004;48.416;10.066;2022-10-17T06:31:41;9.10;99.90
31369;DHT22;18004;48.416;10.066;2022-10-17T06:34:06;9.10;99.90
31369;DHT22;18004;48.416;10.066;2022-10-17T06:36:32;9.20;99.90
31369;DHT22;18004;48.416;10.066;2022-10-17T06:38:58;9.20;99.90
31369;DHT22;18004;48.416;10.066;2022-10-17T06:41:24;9.20;99.90
31369;DHT22;18004;48.416;10.066;2022-10-17T06:43:49;9.20;99.90
31369;DHT22;18004;48.416;10.066;2022-10-17T06:46:16;9.20;99.90
31369;DHT22;18004;48.416;10.066;2022-10-17T06:48:42;9.30;99.90
31369;DHT22;18004;48.416;10.066;2022-10-17T06:51:07;9.30;99.90
31369;DHT22;18004;48.416;10.066;2022-10-17T06:53:36;9.30;99.90
31369;DHT22;18004;48.416;10.066;2022-10-17T06:56:02;9.40;99.90
31369;DHT22;18004;48.416;10.066;2022-10-17T06:58:30;9.40;99.90
31369;DHT22;18004;48.416;10.066;2022-10-17T07:01:03;9.50;99.90
31369;DHT22;18004;48.416;10.066;2022-10-17T07:03:29;9.50;99.90
31369;DHT22;18004;48.416;10.066;2022-10-17T07:05:56;9.60;99.90
31369;DHT22;18004;48.416;10.066;2022-10-17T07:08:25;9.70;99.90
31369;DHT22;18004;48.416;10.066;2022-10-17T07:10:51;9.80;99.90
31369;DHT22;18004;48.416;10.066;2022-10-17T07:13:17;9.90;99.90
31369;DHT22;18004;48.416;10.066;2022-10-17T07:15:42;10.00;99.90
31369;DHT22;18004;48.416;10.066;2022-10-17T07:18:08;10.20;99.90
31369;DHT22;18004;48.416;10.066;2022-10-17T07:20:34;10.30;99.90
31369;DHT22;18004;48.416;10.066;2022-10-17T07:22:59;10.40;99.90
31369;DHT22;18004;48.416;10.066;2022-10-17T07:25:25;10.50;99.90
31369;DHT22;18004;48.416;10.066;2022-10-17T07:27:51;10.60;99.90
31369;DHT22;18004;48.416;10.066;2022-10-17T07:30:17;10.70;99.90
31369;DHT22;18004;48.416;10.066;2022-10-17T07:32:43;10.80;99.90
31369;DHT22;18004;48.416;10.066;2022-10-17T07:35:09;10.80;99.90
31369;DHT22;18004;48.416;10.066;2022-10-17T07:37:36;10.90;99.90
31369;DHT22;18004;48.416;10.066;2022-10-17T07:40:02;11.10;99.90
31369;DHT22;18004;48.416;10.066;2022-10-17T07:42:28;11.30;99.90
31369;DHT22;18004;48.416;10.066;2022-10-17T07:44:53;11.30;99.90
31369;DHT22;18004;48.416;10.066;2022-10-17T07:47:19;11.30;99.90
31369;DHT22;18004;48.416;10.066;2022-10-17T07:49:45;11.40;99.90
31369;DHT22;18004;48.416;10.066;2022-10-17T07:52:11;11.50;99.90
31369;DHT22;18004;48.416;10.066;2022-10-17T07:54:37;11.60;99.90
31369;DHT22;18004;48.416;10.066;2022-10-17T07:57:03;11.70;99.90
31369;DHT22;18004;48.416;10.066;2022-10-17T07:59:29;11.90;99.90
31369;DHT22;18004;48.416;10.066;2022-10-17T08:01:55;12.00;99.90
31369;DHT22;18004;48.416;10.066;2022-10-17T08:04:21;12.10;99.90
31369;DHT22;18004;48.416;10.066;2022-10-17T08:06:46;12.30;99.90
31369;DHT22;18004;48.416;10.066;2022-10-17T08:09:12;12.30;99.90
31369;DHT22;18004;48.416;10.066;2022-10-17T08:11:38;12.50;99.90
31369;DHT22;18004;48.416;10.066;2022-10-17T08:14:04;12.60;99.90
31369;DHT22;18004;48.416;10.066;2022-10-17T08:16:29;12.70;99.90
31369;DHT22;18004;48.416;10.066;2022-10-17T08:18:55;12.80;99.90
31369;DHT22;18004;48.416;10.066;2022-10-17T08:21:21;13.00;99.90
31369;DHT22;18004;48.416;10.066;2022-10-17T08:23:46;13.30;99.90
31369;DHT22;18004;48.416;10.066;2022-10-17T08:26:12;13.60;99.90
31369;DHT22;18004;48.416;10.066;2022-10-17T08:28:41;13.70;99.90
31369;DHT22;18004;48.416;10.066;2022-10-17T08:31:16;13.80;99.90
31369;DHT22;18004;48.416;10.066;2022-10-17T08:33:45;14.00;99.90
31369;DHT22;18004;48.416;10.066;2022-10-17T08:36:12;14.20;99.90
31369;DHT22;18004;48.416;10.066;2022-10-17T08:38:38;14.30;99.90
31369;DHT22;18004;48.416;10.066;2022-10-17T08:41:28;14.40;99.90
31369;DHT22;18004;48.416;10.066;2022-10-17T08:46:19;14.70;99.90
31369;DHT22;18004;48.416;10.066;2022-10-17T08:48:45;14.80;99.90
31369;DHT22;18004;48.416;10.066;2022-10-17T08:51:16;14.90;99.90
31369;DHT22;18004;48.416;10.066;2022-10-17T08:53:51;14.90;99.90
31369;DHT22;18004;48.416;10.066;2022-10-17T08:56:22;15.00;99.90
31369;DHT22;18004;48.416;10.066;2022-10-17T08:58:48;15.30;99.90
31369;DHT22;18004;48.416;10.066;2022-10-17T09:09:24;15.80;99.90
31369;DHT22;18004;48.416;10.066;2022-10-17T09:12:04;15.90;99.90
31369;DHT22;18004;48.416;10.066;2022-10-17T09:14:41;16.00;99.90
31369;DHT22;18004;48.416;10.066;2022-10-17T09:17:14;16.20;99.90
31369;DHT22;18004;48.416;10.066;2022-10-17T09:19:43;16.20;99.90
31369;DHT22;18004;48.416;10.066;2022-10-17T09:22:12;16.20;99.90
31369;DHT22;18004;48.416;10.066;2022-10-17T09:24:43;16.30;99.90
31369;DHT22;18004;48.416;10.066;2022-10-17T09:27:19;16.50;99.90
31369;DHT22;18004;48.416;10.066;2022-10-17T09:29:47;16.60;99.90
31369;DHT22;18004;48.416;10.066;2022-10-17T09:32:15;16.50;99.90
31369;DHT22;18004;48.416;10.066;2022-10-17T09:34:41;16.70;99.90
31369;DHT22;18004;48.416;10.066;2022-10-17T09:37:12;16.90;99.90
31369;DHT22;18004;48.416;10.066;2022-10-17T09:39:38;17.20;99.90
31369;DHT22;18004;48.416;10.066;2022-10-17T09:42:07;17.40;99.50
31369;DHT22;18004;48.416;10.066;2022-10-17T09:44:36;17.40;99.50
31369;DHT22;18004;48.416;10.066;2022-10-17T09:49:46;17.40;97.30
31369;DHT22;18004;48.416;10.066;2022-10-17T09:52:19;17.40;97.80
31369;DHT22;18004;48.416;10.066;2022-10-17T09:54:52;17.60;97.80
31369;DHT22;18004;48.416;10.066;2022-10-17T09:57:19;17.60;96.70
31369;DHT22;18004;48.416;10.066;2022-10-17T10:04:42;17.90;96.20
31369;DHT22;18004;48.416;10.066;2022-10-17T10:07:15;17.90;95.90
31369;DHT22;18004;48.416;10.066;2022-10-17T10:09:44;18.00;96.00
31369;DHT22;18004;48.416;10.066;2022-10-17T10:12:18;18.20;95.90
31369;DHT22;18004;48.416;10.066;2022-10-17T10:14:44;18.40;95.50
31369;DHT22;18004;48.416;10.066;2022-10-17T10:17:56;18.40;94.50
31369;DHT22;18004;48.416;10.066;2022-10-17T10:19:56;18.50;93.80
31369;DHT22;18004;48.416;10.066;2022-10-17T10:22:22;18.50;94.50
31369;DHT22;18004;48.416;10.066;2022-10-17T10:27:32;18.50;93.90
31369;DHT22;18004;48.416;10.066;2022-10-17T10:29:59;18.70;94.70
31369;DHT22;18004;48.416;10.066;2022-10-17T10:32:25;18.60;93.20
31369;DHT22;18004;48.416;10.066;2022-10-17T10:40:03;18.80;93.20
31369;DHT22;18004;48.416;10.066;2022-10-17T10:42:35;18.90;93.20
31369;DHT22;18004;48.416;10.066;2022-10-17T10:45:12;18.90;93.40
31369;DHT22;18004;48.416;10.066;2022-10-17T10:47:39;18.90;93.10
31369;DHT22;18004;48.416;10.066;2022-10-17T10:50:25;19.00;93.30
31369;DHT22;18004;48.416;10.066;2022-10-17T10:55:43;19.20;93.00
31369;DHT22;18004;48.416;10.066;2022-10-17T10:58:26;19.40;93.10
31369;DHT22;18004;48.416;10.066;2022-10-17T11:00:59;19.50;93.50
31369;DHT22;18004;48.416;10.066;2022-10-17T11:06:13;19.90;92.00
31369;DHT22;18004;48.416;10.066;2022-10-17T11:08:48;20.10;91.40
31369;DHT22;18004;48.416;10.066;2022-10-17T11:11:18;20.10;90.50
31369;DHT22;18004;48.416;10.066;2022-10-17T11:13:57;20.10;90.10
31369;DHT22;18004;48.416;10.066;2022-10-17T11:16:27;20.10;90.20
31369;DHT22;18004;48.416;10.066;2022-10-17T11:18:56;20.10;90.80
31369;DHT22;18004;48.416;10.066;2022-10-17T11:21:30;20.30;89.10
31369;DHT22;18004;48.416;10.066;2022-10-17T11:24:01;20.50;89.50
31369;DHT22;18004;48.416;10.066;2022-10-17T11:26:31;20.60;88.30
31369;DHT22;18004;48.416;10.066;2022-10-17T11:28:58;20.70;86.10
31369;DHT22;18004;48.416;10.066;2022-10-17T11:31:27;20.70;88.10
31369;DHT22;18004;48.416;10.066;2022-10-17T11:33:58;20.70;89.00
31369;DHT22;18004;48.416;10.066;2022-10-17T11:36:25;21.00;87.50
31369;DHT22;18004;48.416;10.066;2022-10-17T11:38:59;21.00;83.70
31369;DHT22;18004;48.416;10.066;2022-10-17T11:41:48;21.00;86.30
31369;DHT22;18004;48.416;10.066;2022-10-17T11:44:17;21.10;84.10
31369;DHT22;18004;48.416;10.066;2022-10-17T11:46:43;21.10;83.20
31369;DHT22;18004;48.416;10.066;2022-10-17T11:51:44;21.40;85.60
31369;DHT22;18004;48.416;10.066;2022-10-17T11:54:12;21.50;86.50
31369;DHT22;18004;48.416;10.066;2022-10-17T12:02:07;21.80;80.90
31369;DHT22;18004;48.416;10.066;2022-10-17T12:09:35;22.00;75.60
31369;DHT22;18004;48.416;10.066;2022-10-17T12:12:05;22.10;73.90
31369;DHT22;18004;48.416;10.066;2022-10-17T12:14:44;22.20;72.10
31369;DHT22;18004;48.416;10.066;2022-10-17T12:20:16;22.50;67.50
31369;DHT22;18004;48.416;10.066;2022-10-17T12:22:49;22.70;66.10
31369;DHT22;18004;48.416;10.066;2022-10-17T12:25:19;22.80;63.60
31369;DHT22;18004;48.416;10.066;2022-10-17T12:27:45;23.00;63.60
31369;DHT22;18004;48.416;10.066;2022-10-17T12:35:23;23.00;54.70
31369;DHT22;18004;48.416;10.066;2022-10-17T12:42:59;23.20;45.80
31369;DHT22;18004;48.416;10.066;2022-10-17T12:48:11;23.20;42.70
31369;DHT22;18004;48.416;10.066;2022-10-17T12:53:21;23.50;40.90
31369;DHT22;18004;48.416;10.066;2022-10-17T12:55:48;23.60;43.60
31369;DHT22;18004;48.416;10.066;2022-10-17T12:58:16;23.60;40.10
31369;DHT22;18004;48.416;10.066;2022-10-17T13:00:52;23.70;38.10
31369;DHT22;18004;48.416;10.066;2022-10-17T13:03:20;23.80;36.00
31369;DHT22;18004;48.416;10.066;2022-10-17T13:05:48;23.80;36.70
31369;DHT22;18004;48.416;10.066;2022-10-17T13:08:26;23.80;39.10
31369;DHT22;18004;48.416;10.066;2022-10-17T13:10:53;23.80;36.90
31369;DHT22;18004;48.416;10.066;2022-10-17T13:15:45;23.60;37.70
31369;DHT22;18004;48.416;10.066;2022-10-17T13:18:16;23.60;36.10
31369;DHT22;18004;48.416;10.066;2022-10-17T13:20:43;23.50;40.80
31369;DHT22;18004;48.416;10.066;2022-10-17T13:23:22;23.60;38.70
31369;DHT22;18004;48.416;10.066;2022-10-17T13:26:00;23.70;34.80
31369;DHT22;18004;48.416;10.066;2022-10-17T13:28:26;23.60;34.20
31369;DHT22;18004;48.416;10.066;2022-10-17T13:30:53;23.60;34.50
31369;DHT22;18004;48.416;10.066;2022-10-17T13:33:34;23.60;34.20
31369;DHT22;18004;48.416;10.066;2022-10-17T13:36:01;23.70;36.80
31369;DHT22;18004;48.416;10.066;2022-10-17T13:38:28;23.70;35.70
31369;DHT22;18004;48.416;10.066;2022-10-17T13:40:54;23.70;37.30
31369;DHT22;18004;48.416;10.066;2022-10-17T13:43:20;23.80;37.80
31369;DHT22;18004;48.416;10.066;2022-10-17T13:45:52;23.90;37.60
31369;DHT22;18004;48.416;10.066;2022-10-17T13:48:20;23.90;37.10
31369;DHT22;18004;48.416;10.066;2022-10-17T13:50:46;23.90;36.40
31369;DHT22;18004;48.416;10.066;2022-10-17T13:53:16;24.10;37.10
31369;DHT22;18004;48.416;10.066;2022-10-17T13:56:01;24.10;37.60
31369;DHT22;18004;48.416;10.066;2022-10-17T13:58:31;24.10;36.50
31369;DHT22;18004;48.416;10.066;2022-10-17T14:01:03;24.20;39.70
31369;DHT22;18004;48.416;10.066;2022-10-17T14:03:29;24.00;34.40
31369;DHT22;18004;48.416;10.066;2022-10-17T14:06:37;24.00;36.50
31369;DHT22;18004;48.416;10.066;2022-10-17T14:08:48;24.10;36.80
31369;DHT22;18004;48.416;10.066;2022-10-17T14:11:17;24.10;35.10
31369;DHT22;18004;48.416;10.066;2022-10-17T14:13:46;24.10;36.30
31369;DHT22;18004;48.416;10.066;2022-10-17T14:16:12;24.20;37.70
31369;DHT22;18004;48.416;10.066;2022-10-17T14:18:39;24.20;34.00
31369;DHT22;18004;48.416;10.066;2022-10-17T14:21:05;24.20;32.40
31369;DHT22;18004;48.416;10.066;2022-10-17T14:23:35;24.20;35.00
31369;DHT22;18004;48.416;10.066;2022-10-17T14:28:33;24.00;32.90
31369;DHT22;18004;48.416;10.066;2022-10-17T14:31:09;23.90;32.80
31369;DHT22;18004;48.416;10.066;2022-10-17T14:33:35;23.90;32.10
31369;DHT22;18004;48.416;10.066;2022-10-17T14:36:01;23.80;38.00
31369;DHT22;18004;48.416;10.066;2022-10-17T14:38:28;23.90;33.90
31369;DHT22;18004;48.416;10.066;2022-10-17T14:40:58;23.90;30.00
31369;DHT22;18004;48.416;10.066;2022-10-17T14:43:25;23.70;31.60
31369;DHT22;18004;48.416;10.066;2022-10-17T14:45:52;23.80;33.60
31369;DHT22;18004;48.416;10.066;2022-10-17T14:48:21;23.80;30.60
31369;DHT22;18004;48.416;10.066;2022-10-17T14:53:31;23.80;35.60
31369;DHT22;18004;48.416;10.066;2022-10-17T14:55:58;23.80;34.20
31369;DHT22;18004;48.416;10.066;2022-10-17T14:58:25;23.80;34.00
31369;DHT22;18004;48.416;10.066;2022-10-17T15:00:55;23.80;33.80
31369;DHT22;18004;48.416;10.066;2022-10-17T15:03:21;23.70;33.60
31369;DHT22;18004;48.416;10.066;2022-10-17T15:05:47;23.50;29.90
31369;DHT22;18004;48.416;10.066;2022-10-17T15:08:14;23.50;30.20
31369;DHT22;18004;48.416;10.066;2022-10-17T15:10:40;23.50;32.10
31369;DHT22;18004;48.416;10.066;2022-10-17T15:13:09;23.40;30.50
31369;DHT22;18004;48.416;10.066;2022-10-17T15:15:35;23.40;34.40
31369;DHT22;18004;48.416;10.066;2022-10-17T15:18:01;23.40;35.20
31369;DHT22;18004;48.416;10.066;2022-10-17T15:20:27;23.40;34.70
31369;DHT22;18004;48.416;10.066;2022-10-17T15:23:01;23.40;34.50
31369;DHT22;18004;48.416;10.066;2022-10-17T15:25:27;23.30;34.50
31369;DHT22;18004;48.416;10.066;2022-10-17T15:27:54;23.30;37.30
31369;DHT22;18004;48.416;10.066;2022-10-17T15:30:26;23.30;38.90
31369;DHT22;18004;48.416;10.066;2022-10-17T15:32:52;23.30;40.80
31369;DHT22;18004;48.416;10.066;2022-10-17T15:35:19;23.30;43.30
31369;DHT22;18004;48.416;10.066;2022-10-17T15:37:45;23.30;43.40
31369;DHT22;18004;48.416;10.066;2022-10-17T15:40:22;23.20;48.20
31369;DHT22;18004;48.416;10.066;2022-10-17T15:42:48;23.20;48.00
31369;DHT22;18004;48.416;10.066;2022-10-17T15:45:14;23.10;51.20
31369;DHT22;18004;48.416;10.066;2022-10-17T15:47:41;23.10;53.90
31369;DHT22;18004;48.416;10.066;2022-10-17T15:50:09;23.00;53.50
31369;DHT22;18004;48.416;10.066;2022-10-17T15:52:36;22.90;58.30
31369;DHT22;18004;48.416;10.066;2022-10-17T15:55:02;22.90;59.30
31369;DHT22;18004;48.416;10.066;2022-10-17T15:57:28;22.80;69.00
31369;DHT22;18004;48.416;10.066;2022-10-17T15:59:54;22.60;70.70
31369;DHT22;18004;48.416;10.066;2022-10-17T16:02:22;22.60;73.90
31369;DHT22;18004;48.416;10.066;2022-10-17T16:04:48;22.40;75.70
31369;DHT22;18004;48.416;10.066;2022-10-17T16:07:14;22.30;74.90
31369;DHT22;18004;48.416;10.066;2022-10-17T16:09:40;22.20;75.50
31369;DHT22;18004;48.416;10.066;2022-10-17T16:12:08;22.10;72.90
31369;DHT22;18004;48.416;10.066;2022-10-17T16:14:35;22.00;72.80
31369;DHT22;18004;48.416;10.066;2022-10-17T16:17:01;21.90;72.60
31369;DHT22;18004;48.416;10.066;2022-10-17T16:19:26;21.80;74.20
31369;DHT22;18004;48.416;10.066;2022-10-17T16:21:57;21.70;75.20
31369;DHT22;18004;48.416;10.066;2022-10-17T16:24:24;21.60;76.40
31369;DHT22;18004;48.416;10.066;2022-10-17T16:26:49;21.40;77.90
31369;DHT22;18004;48.416;10.066;2022-10-17T16:29:15;21.30;77.90
31369;DHT22;18004;48.416;10.066;2022-10-17T16:31:42;21.20;79.30
31369;DHT22;18004;48.416;10.066;2022-10-17T16:34:09;21.10;80.10
31369;DHT22;18004;48.416;10.066;2022-10-17T16:36:35;21.10;81.00
31369;DHT22;18004;48.416;10.066;2022-10-17T16:39:00;21.00;82.30
31369;DHT22;18004;48.416;10.066;2022-10-17T16:41:27;20.90;82.70
31369;DHT22;18004;48.416;10.066;2022-10-17T16:43:53;20.80;84.00
31369;DHT22;18004;48.416;10.066;2022-10-17T16:46:20;20.60;84.40
31369;DHT22;18004;48.416;10.066;2022-10-17T16:48:46;20.60;85.40
31369;DHT22;18004;48.416;10.066;2022-10-17T16:51:12;20.50;85.80
31369;DHT22;18004;48.416;10.066;2022-10-17T16:53:38;20.40;86.40
31369;DHT22;18004;48.416;10.066;2022-10-17T16:56:08;20.30;86.70
31369;DHT22;18004;48.416;10.066;2022-10-17T16:58:34;20.20;87.60
31369;DHT22;18004;48.416;10.066;2022-10-17T17:01:04;20.10;88.80
31369;DHT22;18004;48.416;10.066;2022-10-17T17:03:34;20.00;89.40
31369;DHT22;18004;48.416;10.066;2022-10-17T17:05:59;19.80;90.10
31369;DHT22;18004;48.416;10.066;2022-10-17T17:08:25;19.70;91.10